createdAt,value
2017-09-30T00:01:08.748Z,26.60
2017-09-30T00:03:36.192Z,29.40
2017-09-30T00:06:03.633Z,29.00
2017-09-30T00:08:31.076Z,25.20
2017-09-30T00:10:58.525Z,28.23
2017-09-30T00:13:25.972Z,32.80
2017-09-30T00:15:53.412Z,28.40
2017-09-30T00:18:20.857Z,34.23
2017-09-30T00:20:48.296Z,26.70
2017-09-30T00:23:15.807Z,27.47
2017-09-30T00:25:43.241Z,33.23
2017-09-30T00:28:10.686Z,25.93
2017-09-30T00:30:38.133Z,25.33
2017-09-30T00:33:05.578Z,27.53
2017-09-30T00:35:33.024Z,25.07
2017-09-30T00:38:00.459Z,28.73
2017-09-30T00:40:27.917Z,26.57
2017-09-30T00:42:55.356Z,24.33
2017-09-30T00:45:22.796Z,28.53
2017-09-30T00:47:50.232Z,27.53
2017-09-30T00:50:17.685Z,27.30
2017-09-30T00:52:45.129Z,27.37
2017-09-30T00:55:12.571Z,27.57
2017-09-30T00:57:40.009Z,28.97
2017-09-30T01:00:07.462Z,29.73
2017-09-30T01:02:34.909Z,29.83
2017-09-30T01:05:02.351Z,30.10
2017-09-30T01:07:29.788Z,28.50
2017-09-30T01:09:57.242Z,25.50
2017-09-30T01:12:24.685Z,26.63
2017-09-30T01:14:52.137Z,26.00
2017-09-30T01:17:19.682Z,26.70
2017-09-30T01:19:47.123Z,29.63
2017-09-30T01:22:14.668Z,27.53
2017-09-30T01:24:42.112Z,27.97
2017-09-30T01:27:09.565Z,27.50
2017-09-30T01:29:37.778Z,28.47
2017-09-30T01:32:05.211Z,28.00
2017-09-30T01:34:32.660Z,30.57
2017-09-30T01:37:00.105Z,26.97
2017-09-30T01:39:27.551Z,27.23
2017-09-30T01:41:54.990Z,27.80
2017-09-30T01:44:22.432Z,30.63
2017-09-30T01:46:49.868Z,29.37
2017-09-30T01:49:17.308Z,30.73
2017-09-30T01:51:44.744Z,32.67
2017-09-30T01:54:12.192Z,28.33
2017-09-30T01:56:39.635Z,30.37
2017-09-30T01:59:07.108Z,31.57
2017-09-30T02:01:34.547Z,28.80
2017-09-30T02:04:01.984Z,34.40
2017-09-30T02:06:29.416Z,32.30
2017-09-30T02:08:56.863Z,33.47
2017-09-30T02:11:25.059Z,33.70
2017-09-30T02:13:52.500Z,33.10
2017-09-30T02:16:19.945Z,33.37
2017-09-30T02:18:48.161Z,32.07
2017-09-30T02:21:15.606Z,35.70
2017-09-30T02:23:43.052Z,36.20
2017-09-30T02:26:10.495Z,34.07
2017-09-30T02:28:37.929Z,32.43
2017-09-30T02:31:05.377Z,35.00
2017-09-30T02:33:32.812Z,33.83
2017-09-30T02:36:00.256Z,32.50
2017-09-30T02:38:27.690Z,33.57
2017-09-30T02:40:55.149Z,29.43
2017-09-30T02:43:22.587Z,33.70
2017-09-30T02:45:50.036Z,29.53
2017-09-30T02:48:17.472Z,34.63
2017-09-30T02:50:44.914Z,30.13
2017-09-30T02:53:12.353Z,30.50
2017-09-30T02:55:39.812Z,29.60
2017-09-30T02:58:07.256Z,34.67
2017-09-30T03:00:34.709Z,31.47
2017-09-30T03:03:02.157Z,29.30
2017-09-30T03:05:29.606Z,27.80
2017-09-30T03:07:57.048Z,28.20
2017-09-30T03:10:24.492Z,30.50
2017-09-30T03:12:51.937Z,32.50
2017-09-30T03:15:19.377Z,35.00
2017-09-30T03:17:46.816Z,31.70
2017-09-30T03:20:14.264Z,29.67
2017-09-30T03:22:41.713Z,34.33
2017-09-30T03:25:09.146Z,32.00
2017-09-30T03:27:36.589Z,31.90
2017-09-30T03:30:04.042Z,30.77
2017-09-30T03:32:32.243Z,33.50
2017-09-30T03:34:59.697Z,31.70
2017-09-30T03:37:27.133Z,35.93
2017-09-30T03:39:54.581Z,30.47
2017-09-30T03:42:22.020Z,30.63
2017-09-30T03:44:49.572Z,36.57
2017-09-30T03:47:16.996Z,30.67
2017-09-30T03:49:44.445Z,31.73
2017-09-30T03:52:11.894Z,33.10
2017-09-30T03:54:39.343Z,33.07
2017-09-30T03:57:06.780Z,33.60
2017-09-30T03:59:34.219Z,30.70
2017-09-30T04:02:01.657Z,35.13
2017-09-30T04:04:29.109Z,32.53
2017-09-30T04:06:56.544Z,31.23
2017-09-30T04:09:23.983Z,33.23
2017-09-30T04:11:51.416Z,34.80
2017-09-30T04:14:18.852Z,38.40
2017-09-30T04:16:46.296Z,29.33
2017-09-30T04:19:13.734Z,33.70
2017-09-30T04:21:41.176Z,30.77
2017-09-30T04:24:08.617Z,30.80
2017-09-30T04:26:36.055Z,31.43
2017-09-30T04:29:03.501Z,32.30
2017-09-30T04:31:30.964Z,33.80
2017-09-30T04:33:58.394Z,32.57
2017-09-30T04:36:25.844Z,32.10
2017-09-30T04:38:53.280Z,32.40
2017-09-30T04:41:20.734Z,30.50
2017-09-30T04:43:48.181Z,33.97
2017-09-30T04:46:15.668Z,33.07
2017-09-30T04:48:43.113Z,37.27
2017-09-30T04:51:10.559Z,33.70
2017-09-30T04:53:38.764Z,36.03
2017-09-30T04:56:06.223Z,32.60
2017-09-30T04:58:33.664Z,30.30
2017-09-30T05:01:01.112Z,31.10
2017-09-30T05:03:28.544Z,31.60
2017-09-30T05:05:56.095Z,36.00
2017-09-30T05:08:23.520Z,31.50
2017-09-30T05:10:50.959Z,34.67
2017-09-30T05:13:18.404Z,36.00
2017-09-30T05:15:45.845Z,31.30
2017-09-30T05:18:13.297Z,33.50
2017-09-30T05:20:40.727Z,32.97
2017-09-30T05:23:08.174Z,37.83
2017-09-30T05:25:35.608Z,32.20
2017-09-30T05:28:03.056Z,34.97
2017-09-30T05:30:30.513Z,36.63
2017-09-30T05:32:57.985Z,38.60
2017-09-30T05:35:25.419Z,44.60
2017-09-30T05:37:52.871Z,57.43
2017-09-30T05:40:20.313Z,38.97
2017-09-30T05:42:47.770Z,47.33
2017-09-30T05:45:15.204Z,41.83
2017-09-30T05:47:42.656Z,51.83
2017-09-30T05:50:10.368Z,36.83
2017-09-30T05:52:37.800Z,44.97
2017-09-30T05:55:05.240Z,36.00
2017-09-30T05:57:32.684Z,39.93
2017-09-30T06:00:00.116Z,31.70
2017-09-30T06:02:27.608Z,32.73
2017-09-30T06:04:55.052Z,30.57
2017-09-30T06:07:22.532Z,31.53
2017-09-30T06:09:49.979Z,33.60
2017-09-30T06:12:17.417Z,44.13
2017-09-30T06:14:44.864Z,26.27
2017-09-30T06:17:12.309Z,30.17
2017-09-30T06:19:39.754Z,38.60
2017-09-30T06:22:07.188Z,39.77
2017-09-30T06:24:34.627Z,29.33
2017-09-30T06:27:02.066Z,30.10
2017-09-30T06:29:29.515Z,25.23
2017-09-30T06:31:56.956Z,29.60
2017-09-30T06:34:24.406Z,24.57
2017-09-30T06:36:51.840Z,22.80
2017-09-30T06:39:19.280Z,31.73
2017-09-30T06:41:46.715Z,23.90
2017-09-30T06:44:14.933Z,21.13
2017-09-30T06:46:42.368Z,22.33
2017-09-30T06:49:09.807Z,22.20
2017-09-30T06:51:37.247Z,22.63
2017-09-30T06:54:04.712Z,43.27
2017-09-30T06:56:32.147Z,23.27
2017-09-30T06:58:59.625Z,22.67
2017-09-30T07:01:27.904Z,22.80
2017-09-30T07:06:29.236Z,23.90
2017-09-30T07:08:56.676Z,22.80
2017-09-30T07:11:24.120Z,22.50
2017-09-30T07:13:52.338Z,21.30
2017-09-30T07:16:19.781Z,21.17
2017-09-30T07:18:47.220Z,21.90
2017-09-30T07:21:14.656Z,22.90
2017-09-30T07:23:42.096Z,21.57
2017-09-30T07:26:09.540Z,23.57
2017-09-30T07:28:36.995Z,23.73
2017-09-30T07:31:04.436Z,21.10
2017-09-30T07:33:31.884Z,20.07
2017-09-30T07:35:59.329Z,21.47
2017-09-30T07:38:26.759Z,20.40
2017-09-30T07:40:54.213Z,23.20
2017-09-30T07:43:21.657Z,22.20
2017-09-30T07:45:49.108Z,24.00
2017-09-30T07:48:16.563Z,24.37
2017-09-30T07:50:44.768Z,27.43
2017-09-30T07:53:12.627Z,26.60
2017-09-30T07:55:40.084Z,27.67
2017-09-30T07:58:08.288Z,26.67
2017-09-30T08:00:36.625Z,26.93
2017-09-30T08:03:04.081Z,27.47
2017-09-30T08:05:31.503Z,27.00
2017-09-30T08:07:58.943Z,25.57
2017-09-30T08:10:26.381Z,27.27
2017-09-30T08:12:53.840Z,27.73
2017-09-30T08:15:21.272Z,26.17
2017-09-30T08:17:48.720Z,31.83
2017-09-30T08:20:16.160Z,27.87
2017-09-30T08:22:43.617Z,26.97
2017-09-30T08:25:11.083Z,24.80
2017-09-30T08:27:38.523Z,23.90
2017-09-30T08:30:05.965Z,25.57
2017-09-30T08:32:34.179Z,25.63
2017-09-30T08:35:01.651Z,27.37
2017-09-30T08:37:29.861Z,26.90
2017-09-30T08:39:57.299Z,25.37
2017-09-30T08:42:24.752Z,26.60
2017-09-30T08:44:52.192Z,23.83
2017-09-30T08:47:19.637Z,26.13
2017-09-30T08:49:47.080Z,27.17
2017-09-30T08:52:14.542Z,25.67
2017-09-30T08:54:41.977Z,23.77
2017-09-30T08:57:09.435Z,25.20
2017-09-30T08:59:36.877Z,24.50
2017-09-30T09:02:04.321Z,25.13
2017-09-30T09:04:31.769Z,23.50
2017-09-30T09:06:59.208Z,26.87
2017-09-30T09:09:26.647Z,22.80
2017-09-30T09:11:54.088Z,24.43
2017-09-30T09:14:21.536Z,26.07
2017-09-30T09:16:48.980Z,34.50
2017-09-30T09:19:16.434Z,25.43
2017-09-30T09:21:43.868Z,25.27
2017-09-30T09:24:11.317Z,23.73
2017-09-30T09:26:38.774Z,22.50
2017-09-30T09:29:06.985Z,23.17
2017-09-30T09:31:34.431Z,20.67
2017-09-30T09:34:01.864Z,18.83
2017-09-30T09:36:29.335Z,20.00
2017-09-30T09:38:56.777Z,19.90
2017-09-30T09:41:24.243Z,19.77
2017-09-30T09:43:51.672Z,17.47
2017-09-30T09:46:19.107Z,19.40
2017-09-30T09:48:46.548Z,19.57
2017-09-30T09:51:14.018Z,18.27
2017-09-30T09:53:42.220Z,18.80
2017-09-30T09:56:09.655Z,16.43
2017-09-30T09:58:37.103Z,15.73
2017-09-30T10:01:04.555Z,14.70
2017-09-30T10:06:05.959Z,15.43
2017-09-30T10:08:33.400Z,15.07
2017-09-30T10:11:01.001Z,15.63
2017-09-30T10:13:28.424Z,14.37
2017-09-30T10:15:55.868Z,15.63
2017-09-30T10:18:23.316Z,14.17
2017-09-30T10:20:50.764Z,14.33
2017-09-30T10:23:18.232Z,14.40
2017-09-30T10:25:45.705Z,14.43
2017-09-30T10:28:13.136Z,15.37
2017-09-30T10:30:41.344Z,15.03
2017-09-30T10:33:08.833Z,17.73
2017-09-30T10:35:36.259Z,13.13
2017-09-30T10:38:03.700Z,13.23
2017-09-30T10:40:31.146Z,13.77
2017-09-30T10:42:58.568Z,13.50
2017-09-30T10:45:26.011Z,14.63
2017-09-30T10:47:53.447Z,11.97
2017-09-30T10:50:20.893Z,13.50
2017-09-30T10:52:48.344Z,13.00
2017-09-30T10:55:15.784Z,12.77
2017-09-30T10:57:43.221Z,13.57
2017-09-30T11:00:10.659Z,13.20
2017-09-30T11:02:38.644Z,13.93
2017-09-30T11:05:06.082Z,11.77
2017-09-30T11:07:33.527Z,13.70
2017-09-30T11:10:00.976Z,12.53
2017-09-30T11:12:29.180Z,13.37
2017-09-30T11:14:56.621Z,12.23
2017-09-30T11:17:24.064Z,14.60
2017-09-30T11:19:51.499Z,12.10
2017-09-30T11:22:18.952Z,12.07
2017-09-30T11:24:46.396Z,11.63
2017-09-30T11:27:13.853Z,13.23
2017-09-30T11:29:41.290Z,11.53
2017-09-30T11:32:08.804Z,12.77
2017-09-30T11:34:37.002Z,11.80
2017-09-30T11:37:04.442Z,12.73
2017-09-30T11:39:31.889Z,10.00
2017-09-30T11:42:00.083Z,12.13
2017-09-30T11:44:27.508Z,12.30
2017-09-30T11:46:54.945Z,11.43
2017-09-30T11:49:22.371Z,9.90
2017-09-30T11:51:49.810Z,9.47
2017-09-30T11:54:17.250Z,9.97
2017-09-30T11:56:44.725Z,9.90
2017-09-30T11:59:12.161Z,10.30
2017-09-30T12:01:39.592Z,9.57
2017-09-30T12:04:07.030Z,10.47
2017-09-30T12:06:34.470Z,10.10
2017-09-30T12:09:01.912Z,10.60
2017-09-30T12:11:29.335Z,8.73
2017-09-30T12:13:56.763Z,9.53
2017-09-30T12:16:24.210Z,10.17
2017-09-30T12:18:51.647Z,9.33
2017-09-30T12:21:19.068Z,9.57
2017-09-30T12:23:47.283Z,9.60
2017-09-30T12:26:14.727Z,8.87
2017-09-30T12:28:42.151Z,8.13
2017-09-30T12:31:09.576Z,8.60
2017-09-30T12:33:37.020Z,7.83
2017-09-30T12:36:05.204Z,8.87
2017-09-30T12:38:32.639Z,10.60
2017-09-30T12:41:00.088Z,7.30
2017-09-30T12:43:27.508Z,9.00
2017-09-30T12:45:54.940Z,8.90
2017-09-30T12:48:22.379Z,8.10
2017-09-30T12:50:50.680Z,7.63
2017-09-30T12:53:18.103Z,8.97
2017-09-30T12:55:45.533Z,7.60
2017-09-30T12:58:12.967Z,8.93
2017-09-30T13:00:40.404Z,7.60
2017-09-30T13:03:08.604Z,7.90
2017-09-30T13:05:36.036Z,9.60
2017-09-30T13:08:03.511Z,8.53
2017-09-30T13:10:30.953Z,10.13
2017-09-30T13:12:58.480Z,13.10
2017-09-30T13:15:25.924Z,14.10
2017-09-30T13:17:53.365Z,13.97
2017-09-30T13:20:20.835Z,14.70
2017-09-30T13:22:48.272Z,14.17
2017-09-30T13:25:15.711Z,15.83
2017-09-30T13:27:43.146Z,14.20
2017-09-30T13:30:10.589Z,19.40
2017-09-30T13:32:38.021Z,15.07
2017-09-30T13:35:05.481Z,20.93
2017-09-30T13:37:32.912Z,14.57
2017-09-30T13:40:00.356Z,14.53
2017-09-30T13:42:27.872Z,15.90
2017-09-30T13:44:55.310Z,14.27
2017-09-30T13:47:22.777Z,15.03
2017-09-30T13:49:50.208Z,14.20
2017-09-30T13:52:17.649Z,15.37
2017-09-30T13:54:45.090Z,12.57
2017-09-30T13:57:12.516Z,14.23
2017-09-30T13:59:39.971Z,16.20
2017-09-30T14:02:07.404Z,15.87
2017-09-30T14:04:34.836Z,14.07
2017-09-30T14:07:03.047Z,14.73
2017-09-30T14:09:30.484Z,13.83
2017-09-30T14:11:58.028Z,13.90
2017-09-30T14:14:25.499Z,15.13
2017-09-30T14:16:52.944Z,13.40
2017-09-30T14:19:20.380Z,15.10
2017-09-30T14:21:47.844Z,14.93
2017-09-30T14:24:15.268Z,14.50
2017-09-30T14:26:42.727Z,15.37
2017-09-30T14:29:10.938Z,14.93
2017-09-30T14:31:38.364Z,13.57
2017-09-30T14:34:05.802Z,13.93
2017-09-30T14:36:33.255Z,14.53
2017-09-30T14:39:00.680Z,15.10
2017-09-30T14:41:28.172Z,12.37
2017-09-30T14:43:55.612Z,15.03
2017-09-30T14:46:23.056Z,14.60
2017-09-30T14:48:51.252Z,14.70
2017-09-30T14:51:19.479Z,14.90
2017-09-30T14:53:46.916Z,16.50
2017-09-30T14:56:14.368Z,13.87
2017-09-30T14:58:41.804Z,14.80
2017-09-30T15:01:09.258Z,15.87
2017-09-30T15:03:38.211Z,15.57
2017-09-30T15:06:05.632Z,16.67
2017-09-30T15:08:33.081Z,16.27
2017-09-30T15:11:00.511Z,19.50
2017-09-30T15:13:27.999Z,17.60
2017-09-30T15:15:55.436Z,17.23
2017-09-30T15:18:22.887Z,17.83
2017-09-30T15:20:50.333Z,15.47
2017-09-30T15:23:17.817Z,16.20
2017-09-30T15:25:45.261Z,17.53
2017-09-30T15:28:12.695Z,15.23
2017-09-30T15:30:40.204Z,16.13
2017-09-30T15:33:08.425Z,20.13
2017-09-30T15:35:35.853Z,14.77
2017-09-30T15:38:03.305Z,15.80
2017-09-30T15:40:30.741Z,16.20
2017-09-30T15:42:58.189Z,16.13
2017-09-30T15:45:25.673Z,16.27
2017-09-30T15:47:53.115Z,16.57
2017-09-30T15:50:20.552Z,16.17
2017-09-30T15:52:48.008Z,16.07
2017-09-30T15:55:15.440Z,16.30
2017-09-30T15:57:42.889Z,18.37
2017-09-30T16:00:10.325Z,15.10
2017-09-30T16:02:37.894Z,14.30
2017-09-30T16:05:05.327Z,14.50
2017-09-30T16:07:32.770Z,16.67
2017-09-30T16:10:00.280Z,16.03
2017-09-30T16:12:27.757Z,18.00
2017-09-30T16:14:55.181Z,15.47
2017-09-30T16:17:22.625Z,16.43
2017-09-30T16:19:50.068Z,17.07
2017-09-30T16:22:18.276Z,16.93
2017-09-30T16:24:45.723Z,17.07
2017-09-30T16:27:13.166Z,19.93
2017-09-30T16:29:40.663Z,20.03
2017-09-30T16:32:08.210Z,17.03
2017-09-30T16:34:35.652Z,19.23
2017-09-30T16:37:03.097Z,20.83
2017-09-30T16:39:30.566Z,21.10
2017-09-30T16:41:58.764Z,19.80
2017-09-30T16:44:26.203Z,22.77
2017-09-30T16:46:53.640Z,22.10
2017-09-30T16:49:21.075Z,27.93
2017-09-30T16:51:48.517Z,24.90
2017-09-30T16:54:16.015Z,24.27
2017-09-30T16:56:43.453Z,21.90
2017-09-30T16:59:11.718Z,21.50
2017-09-30T17:01:39.169Z,23.10
2017-09-30T17:04:06.611Z,21.60
2017-09-30T17:06:34.055Z,22.57
2017-09-30T17:09:01.497Z,22.30
2017-09-30T17:11:28.943Z,20.77
2017-09-30T17:13:56.401Z,23.00
2017-09-30T17:16:24.617Z,23.57
2017-09-30T17:18:52.184Z,21.43
2017-09-30T17:21:19.869Z,24.03
2017-09-30T17:23:48.064Z,23.90
2017-09-30T17:26:15.596Z,23.63
2017-09-30T17:28:43.033Z,22.97
2017-09-30T17:31:10.471Z,22.57
2017-09-30T17:33:37.956Z,24.40
2017-09-30T17:36:06.977Z,21.43
2017-09-30T17:38:34.437Z,23.83
2017-09-30T17:41:01.883Z,24.40
2017-09-30T17:43:29.316Z,22.60
2017-09-30T17:45:56.759Z,23.70
2017-09-30T17:48:24.259Z,21.00
2017-09-30T17:50:51.803Z,24.00
2017-09-30T17:53:19.253Z,22.60
2017-09-30T17:55:46.695Z,22.17
2017-09-30T17:58:14.146Z,22.37
2017-09-30T18:00:42.360Z,23.13
2017-09-30T18:03:09.798Z,23.33
2017-09-30T18:05:37.241Z,23.80
2017-09-30T18:08:04.672Z,23.17
2017-09-30T18:10:32.108Z,23.60
2017-09-30T18:12:59.568Z,22.80
2017-09-30T18:15:26.995Z,23.43
2017-09-30T18:17:54.443Z,23.93
2017-09-30T18:20:21.875Z,24.67
2017-09-30T18:22:50.137Z,24.10
2017-09-30T18:25:17.628Z,22.43
2017-09-30T18:27:45.078Z,25.00
2017-09-30T18:30:14.023Z,24.23
2017-09-30T18:32:41.514Z,24.53
2017-09-30T18:35:09.718Z,23.00
2017-09-30T18:37:37.152Z,25.07
2017-09-30T18:40:04.594Z,23.73
2017-09-30T18:42:32.028Z,32.33
2017-09-30T18:44:59.474Z,19.03
2017-09-30T18:47:27.819Z,19.10
2017-09-30T18:49:55.287Z,14.07
2017-09-30T18:52:22.741Z,16.40
2017-09-30T18:54:50.187Z,11.83
2017-09-30T18:57:17.637Z,8.90
2017-09-30T18:59:45.064Z,6.70
2017-09-30T19:02:12.521Z,10.83
2017-09-30T19:04:39.952Z,6.70
2017-09-30T19:07:07.414Z,5.70
2017-09-30T19:09:34.914Z,5.80
2017-09-30T19:12:02.339Z,10.50
2017-09-30T19:14:29.784Z,8.87
2017-09-30T19:16:57.978Z,9.57
2017-09-30T19:19:25.460Z,10.33
2017-09-30T19:21:52.930Z,10.53
2017-09-30T19:24:21.167Z,8.20
2017-09-30T19:26:48.604Z,8.40
2017-09-30T19:29:16.060Z,11.57
2017-09-30T19:31:44.308Z,7.73
2017-09-30T19:34:11.758Z,8.97
2017-09-30T19:36:39.194Z,7.40
2017-09-30T19:39:06.631Z,6.33
2017-09-30T19:41:34.064Z,6.33
2017-09-30T19:44:01.500Z,6.30
2017-09-30T19:46:28.936Z,6.30
2017-09-30T19:48:56.385Z,5.93
2017-09-30T19:51:23.817Z,8.17
2017-09-30T19:53:51.264Z,7.10
2017-09-30T19:56:18.697Z,7.43
2017-09-30T19:58:46.142Z,9.83
2017-09-30T20:01:13.583Z,7.90
2017-09-30T20:03:41.040Z,26.10
2017-09-30T20:06:08.484Z,9.03
2017-09-30T20:08:35.940Z,7.53
2017-09-30T20:11:03.379Z,9.20
2017-09-30T20:13:30.820Z,9.63
2017-09-30T20:15:58.376Z,9.40
2017-09-30T20:18:26.205Z,9.33
2017-09-30T20:20:53.642Z,8.10
2017-09-30T20:23:21.089Z,7.63
2017-09-30T20:25:48.605Z,7.77
2017-09-30T20:28:16.039Z,7.87
2017-09-30T20:30:43.511Z,8.43
2017-09-30T20:33:11.008Z,6.53
2017-09-30T20:35:38.460Z,7.20
2017-09-30T20:38:06.665Z,6.63
2017-09-30T20:40:34.873Z,6.93
2017-09-30T20:43:03.084Z,6.83
2017-09-30T20:45:30.527Z,5.80
2017-09-30T20:47:57.956Z,7.67
2017-09-30T20:50:25.411Z,6.40
2017-09-30T20:52:52.849Z,6.27
2017-09-30T20:55:20.365Z,7.03
2017-09-30T20:57:48.559Z,6.47
2017-09-30T21:00:16.035Z,5.33
2017-09-30T21:02:43.567Z,6.73
2017-09-30T21:05:11.016Z,4.97
2017-09-30T21:07:38.449Z,6.17
2017-09-30T21:10:05.900Z,7.37
2017-09-30T21:12:33.343Z,11.43
2017-09-30T21:15:00.779Z,3.70
2017-09-30T21:17:28.391Z,3.20
2017-09-30T21:19:55.884Z,2.40
2017-09-30T21:22:23.297Z,2.57
2017-09-30T21:24:50.742Z,4.17
2017-09-30T21:27:18.998Z,2.90
2017-09-30T21:29:46.416Z,2.40
2017-09-30T21:32:13.875Z,2.70
2017-09-30T21:34:41.314Z,2.70
2017-09-30T21:37:08.741Z,2.50
2017-09-30T21:39:36.164Z,2.30
2017-09-30T21:42:04.368Z,2.10
2017-09-30T21:44:31.828Z,2.63
2017-09-30T21:46:59.278Z,2.90
2017-09-30T21:49:26.720Z,2.63
2017-09-30T21:51:54.172Z,3.80
2017-09-30T21:54:21.680Z,2.90
2017-09-30T21:56:49.104Z,3.50
2017-09-30T21:59:16.535Z,3.73
2017-09-30T22:01:44.016Z,3.93
2017-09-30T22:04:11.444Z,3.10
2017-09-30T22:06:38.888Z,2.70
2017-09-30T22:09:06.307Z,2.60
2017-09-30T22:11:33.909Z,2.33
2017-09-30T22:14:01.349Z,3.17
2017-09-30T22:16:30.276Z,2.70
2017-09-30T22:18:57.763Z,2.57
2017-09-30T22:21:25.195Z,3.23
2017-09-30T22:23:52.652Z,3.33
2017-09-30T22:26:20.095Z,3.00
2017-09-30T22:28:47.537Z,4.13
2017-09-30T22:31:14.985Z,3.23
2017-09-30T22:33:42.425Z,2.67
2017-09-30T22:36:09.871Z,2.73
2017-09-30T22:38:37.303Z,2.83
2017-09-30T22:41:04.752Z,2.87
2017-09-30T22:43:32.192Z,3.10
2017-09-30T22:45:59.620Z,5.23
2017-09-30T22:48:27.062Z,4.50
2017-09-30T22:50:54.511Z,2.60
2017-09-30T22:53:21.952Z,3.13
2017-09-30T22:55:49.390Z,3.00
2017-09-30T22:58:16.824Z,5.03
2017-09-30T23:00:44.248Z,1.90
2017-09-30T23:03:11.703Z,2.20
2017-09-30T23:05:39.151Z,2.60
2017-09-30T23:08:06.600Z,2.40
2017-09-30T23:10:34.039Z,2.60
2017-09-30T23:13:01.481Z,3.70
2017-09-30T23:15:28.933Z,2.03
2017-09-30T23:17:56.368Z,2.40
2017-09-30T23:20:23.807Z,2.87
2017-09-30T23:22:51.236Z,3.20
2017-09-30T23:25:18.676Z,3.50
2017-09-30T23:27:46.108Z,3.03
2017-09-30T23:30:13.649Z,2.83
2017-09-30T23:32:41.075Z,2.77
2017-09-30T23:35:09.283Z,2.50
2017-09-30T23:37:36.726Z,4.17
2017-09-30T23:40:04.156Z,3.43
2017-09-30T23:42:31.587Z,3.37
2017-09-30T23:44:59.032Z,3.60
2017-09-30T23:47:26.460Z,3.73
2017-09-30T23:49:53.955Z,3.57
2017-09-30T23:52:21.397Z,3.13
2017-09-30T23:54:48.833Z,4.30
2017-09-30T23:57:16.260Z,2.77
2017-09-30T23:59:43.691Z,3.00
